Terminal Aerodrome Forecast
Issued by NWS Mt. Holly, NJ

Home | Current Version | Previous Version | Text Only | Print | Product List | Glossary On
Versions: 1 2 3 4 5 6 7 8 9 10 11 12 13 14 15 16 17 18 19 20 21 22 23 24 25 26 27 28 29 30 31 32
000
FTUS41 KPHI 121000 AAB
TAFACY
TAF AMD
KACY 121024Z 1210/1306 VRB03KT 4SM BR SCT004
      TEMPO 1210/1212 BKN004
     FM121200 13006KT P6SM SCT020
     FM121600 16008KT P6SM FEW050
     FM130200 18004KT P6SM SCT050=

USA.gov is the U.S. government's official web portal to all federal, state and local government web resources and services.